createdAt,value
2019-04-20T00:02:24.067Z,15.56
2019-04-20T00:07:33.999Z,15.47
2019-04-20T00:12:54.582Z,15.37
2019-04-20T00:17:49.648Z,15.29
2019-04-20T00:23:01.662Z,15.22
2019-04-20T00:28:24.663Z,15.14
2019-04-20T00:33:27.351Z,15.09
2019-04-20T00:38:22.793Z,15.03
2019-04-20T00:43:32.874Z,14.98
2019-04-20T00:48:46.241Z,14.92
2019-04-20T00:53:48.404Z,14.86
2019-04-20T00:59:02.702Z,14.82
2019-04-20T01:04:34.590Z,14.75
2019-04-20T01:09:10.395Z,14.69
2019-04-20T01:14:17.508Z,14.63
2019-04-20T01:19:23.255Z,14.58
2019-04-20T01:24:34.886Z,14.54
2019-04-20T01:29:41.129Z,14.49
2019-04-20T01:34:55.357Z,14.45
2019-04-20T01:39:55.123Z,14.43
2019-04-20T01:44:58.996Z,14.42
2019-04-20T01:50:11.377Z,14.42
2019-04-20T01:55:47.961Z,14.41
2019-04-20T02:00:42.064Z,14.43
2019-04-20T02:05:54.472Z,14.43
2019-04-20T02:10:58.727Z,14.42
2019-04-20T02:16:13.971Z,14.43
2019-04-20T02:21:25.836Z,14.46
2019-04-20T02:26:15.978Z,14.43
2019-04-20T02:42:19.759Z,14.30
2019-04-20T02:47:21.401Z,14.26
2019-04-20T02:52:28.889Z,14.20
2019-04-20T02:57:34.290Z,14.13
2019-04-20T03:02:23.599Z,14.08
2019-04-20T03:07:28.110Z,14.02
2019-04-20T03:12:59.745Z,13.95
2019-04-20T03:17:50.790Z,13.85
2019-04-20T03:28:05.154Z,13.70
2019-04-20T03:33:23.187Z,13.64
2019-04-20T03:38:14.244Z,13.58
2019-04-20T03:43:05.516Z,13.51
2019-04-20T03:48:29.479Z,13.44
2019-04-20T03:53:39.262Z,13.36
2019-04-20T03:58:55.594Z,13.28
2019-04-20T04:04:25.711Z,13.18
2019-04-20T04:09:16.205Z,13.10
2019-04-20T04:14:13.517Z,13.03
2019-04-20T04:19:25.487Z,12.98
2019-04-20T04:24:36.771Z,12.92
2019-04-20T04:29:50.601Z,12.88
2019-04-20T04:34:59.052Z,12.87
2019-04-20T04:40:19.599Z,12.85
2019-04-20T04:45:01.666Z,12.86
2019-04-20T04:50:09.551Z,12.91
2019-04-20T04:55:23.730Z,12.96
2019-04-20T05:00:22.745Z,13.04
2019-04-20T05:06:03.611Z,13.13
2019-04-20T05:10:50.364Z,13.23
2019-04-20T05:16:09.777Z,13.35
2019-04-20T05:21:25.627Z,13.49
2019-04-20T05:26:45.968Z,13.61
2019-04-20T05:31:40.422Z,13.78
2019-04-20T05:36:55.629Z,13.96
2019-04-20T05:42:02.910Z,14.20
2019-04-20T05:47:12.330Z,14.46
2019-04-20T05:57:30.231Z,15.36
2019-04-20T06:02:31.637Z,17.64
2019-04-20T06:07:45.736Z,20.90
2019-04-20T06:12:48.381Z,24.01
2019-04-20T06:18:12.352Z,26.88
2019-04-20T06:23:58.368Z,29.39
2019-04-20T06:28:50.796Z,31.59
2019-04-20T06:34:30.650Z,33.43
2019-04-20T06:44:39.308Z,36.52
2019-04-20T06:49:37.940Z,37.75
2019-04-20T06:55:19.734Z,38.99
2019-04-20T07:00:18.065Z,40.36
2019-04-20T07:05:26.620Z,41.49
2019-04-20T07:10:37.628Z,42.54
2019-04-20T07:15:42.767Z,43.61
2019-04-20T07:20:59.576Z,44.51
2019-04-20T07:26:16.884Z,45.46
2019-04-20T07:31:15.595Z,46.19
2019-04-20T07:36:35.990Z,46.77
2019-04-20T07:41:43.813Z,47.07
2019-04-20T07:51:32.292Z,48.47
2019-04-20T07:56:55.111Z,49.51
2019-04-20T08:02:23.781Z,50.24
2019-04-20T08:07:08.745Z,50.99
2019-04-20T08:12:58.112Z,51.40
2019-04-20T08:18:16.100Z,52.27
2019-04-20T08:23:09.770Z,53.21
2019-04-20T08:28:01.631Z,53.30
2019-04-20T08:33:28.479Z,53.58
2019-04-20T08:38:59.967Z,54.44
2019-04-20T08:43:58.487Z,54.65
2019-04-20T08:48:51.972Z,54.90
2019-04-20T08:53:57.041Z,55.31
2019-04-20T08:58:46.097Z,55.83
2019-04-20T09:04:04.660Z,56.20
2019-04-20T09:09:20.715Z,56.85
2019-04-20T09:14:21.389Z,57.64
2019-04-20T09:19:36.528Z,58.21
2019-04-20T09:25:01.768Z,58.95
2019-04-20T09:30:00.477Z,58.78
2019-04-20T09:35:06.798Z,58.47
2019-04-20T09:40:28.673Z,57.12
2019-04-20T09:45:28.328Z,55.32
2019-04-20T09:50:43.566Z,52.55
2019-04-20T09:55:52.890Z,47.73
2019-04-20T10:00:59.531Z,43.02
2019-04-20T10:05:53.784Z,39.43
2019-04-20T10:10:59.571Z,36.54
2019-04-20T10:16:05.881Z,33.89
2019-04-20T10:21:11.879Z,31.81
2019-04-20T10:26:20.557Z,30.42
2019-04-20T10:31:26.605Z,29.25
2019-04-20T10:36:44.113Z,28.59
2019-04-20T10:41:54.486Z,28.23
2019-04-20T10:46:56.857Z,27.88
2019-04-20T10:52:02.672Z,27.62
2019-04-20T10:57:08.213Z,27.51
2019-04-20T11:02:14.022Z,27.35
2019-04-20T11:07:20.686Z,27.17
2019-04-20T11:12:26.356Z,27.15
2019-04-20T11:17:33.344Z,27.18
2019-04-20T11:22:40.197Z,27.25
2019-04-20T11:27:46.040Z,27.33
2019-04-20T11:32:51.912Z,27.36
2019-04-20T11:37:57.573Z,27.36
2019-04-20T11:43:03.873Z,27.30
2019-04-20T11:48:09.665Z,27.27
2019-04-20T11:53:15.381Z,27.31
2019-04-20T11:58:21.802Z,27.27
2019-04-20T12:03:33.292Z,27.26
2019-04-20T12:08:38.536Z,27.27
2019-04-20T12:13:42.744Z,27.35
2019-04-20T12:18:48.433Z,27.42
2019-04-20T12:23:54.126Z,27.44
2019-04-20T12:28:59.783Z,27.52
2019-04-20T12:34:06.386Z,27.50
2019-04-20T12:39:13.240Z,27.48
2019-04-20T12:44:19.691Z,27.53
2019-04-20T12:49:25.470Z,27.54
2019-04-20T12:54:32.127Z,27.63
2019-04-20T12:59:39.187Z,27.69
2019-04-20T13:04:45.710Z,27.74
2019-04-20T13:09:52.714Z,27.79
2019-04-20T13:15:36.453Z,27.79
2019-04-20T13:20:42.003Z,27.76
2019-04-20T13:25:48.758Z,27.74
2019-04-20T13:30:55.383Z,27.72
2019-04-20T13:36:01.916Z,27.80
2019-04-20T13:41:07.498Z,27.90
2019-04-20T13:46:13.304Z,27.99
2019-04-20T13:51:18.917Z,27.98
2019-04-20T13:56:25.905Z,28.01
2019-04-20T14:01:53.703Z,28.07
2019-04-20T14:07:01.768Z,28.11
2019-04-20T14:12:17.344Z,28.12
2019-04-20T14:17:15.067Z,28.09
2019-04-20T14:22:20.895Z,28.15
2019-04-20T14:27:26.656Z,28.18
2019-04-20T14:32:32.568Z,28.09
2019-04-20T14:37:39.340Z,27.96
2019-04-20T14:42:49.730Z,27.91
2019-04-20T14:47:52.537Z,27.95
2019-04-20T14:52:59.777Z,27.85
2019-04-20T14:58:09.728Z,27.82
2019-04-20T15:03:38.245Z,27.81
2019-04-20T15:08:43.234Z,27.76
2019-04-20T15:13:49.028Z,27.73
2019-04-20T15:19:11.898Z,27.72
2019-04-20T15:24:17.800Z,27.69
2019-04-20T15:29:24.244Z,27.67
2019-04-20T15:34:30.924Z,27.67
2019-04-20T15:39:37.034Z,27.61
2019-04-20T15:44:43.035Z,27.62
2019-04-20T15:49:49.777Z,27.55
2019-04-20T15:54:55.877Z,27.50
2019-04-20T16:00:02.706Z,27.46
2019-04-20T16:05:26.363Z,27.41
2019-04-20T16:10:32.891Z,27.30
2019-04-20T16:15:39.930Z,27.20
2019-04-20T16:20:56.457Z,27.14
2019-04-20T16:26:08.883Z,27.07
2019-04-20T16:31:15.454Z,27.00
2019-04-20T16:36:21.102Z,26.87
2019-04-20T16:41:26.557Z,26.75
2019-04-20T16:46:32.158Z,26.63
2019-04-20T16:51:38.835Z,26.50
2019-04-20T16:56:44.581Z,26.40
2019-04-20T17:01:50.598Z,26.29
2019-04-20T17:07:14.234Z,26.19
2019-04-20T17:12:19.806Z,26.05
2019-04-20T17:17:25.459Z,25.92
2019-04-20T17:22:31.739Z,25.81
2019-04-20T17:28:15.031Z,25.69
2019-04-20T17:33:26.547Z,25.52
2019-04-20T17:38:37.699Z,25.39
2019-04-20T17:44:00.235Z,25.24
2019-04-20T17:49:07.781Z,25.10
2019-04-20T17:54:12.966Z,24.94
2019-04-20T17:59:20.057Z,24.76
2019-04-20T18:04:59.024Z,24.61
2019-04-20T18:09:58.833Z,24.43
2019-04-20T18:14:58.384Z,24.28
2019-04-20T18:20:03.294Z,24.07
2019-04-20T18:25:30.016Z,23.89
2019-04-20T18:30:39.164Z,23.76
2019-04-20T18:35:42.179Z,23.58
2019-04-20T18:40:52.848Z,23.41
2019-04-20T18:46:10.968Z,23.22
2019-04-20T18:50:57.469Z,23.07
2019-04-20T18:56:04.407Z,22.93
2019-04-20T19:01:10.744Z,22.77
2019-04-20T19:06:16.434Z,22.63
2019-04-20T19:11:24.966Z,22.51
2019-04-20T19:16:50.758Z,22.38
2019-04-20T19:21:43.961Z,22.27
2019-04-20T19:26:55.600Z,22.14
2019-04-20T19:32:15.851Z,22.00
2019-04-20T19:37:14.169Z,21.87
2019-04-20T19:42:23.120Z,21.76
2019-04-20T19:47:41.598Z,21.65
2019-04-20T19:52:53.164Z,21.54
2019-04-20T19:57:50.428Z,21.43
2019-04-20T20:02:39.665Z,21.31
2019-04-20T20:07:49.366Z,21.21
2019-04-20T20:12:58.581Z,21.13
2019-04-20T20:18:20.739Z,21.06
2019-04-20T20:23:07.957Z,20.97
2019-04-20T20:28:26.096Z,20.90
2019-04-20T20:33:39.577Z,20.82
2019-04-20T20:38:37.005Z,20.77
2019-04-20T20:43:51.070Z,20.71
2019-04-20T20:49:04.941Z,20.65
2019-04-20T20:53:56.496Z,20.59
2019-04-20T20:59:03.976Z,20.56
2019-04-20T21:04:04.972Z,20.50
2019-04-20T21:09:10.558Z,20.43
2019-04-20T21:14:23.115Z,20.38
2019-04-20T21:19:41.768Z,20.31
2019-04-20T21:24:33.830Z,20.24
2019-04-20T21:29:45.372Z,20.17
2019-04-20T21:34:51.704Z,20.09
2019-04-20T21:39:59.419Z,20.00
2019-04-20T21:45:09.495Z,19.91
2019-04-20T21:50:24.058Z,19.82
2019-04-20T21:55:16.229Z,19.72
2019-04-20T22:00:44.541Z,19.63
2019-04-20T22:05:46.440Z,19.52
2019-04-20T22:10:53.398Z,19.42
2019-04-20T22:16:05.207Z,19.31
2019-04-20T22:21:19.896Z,19.17
2019-04-20T22:26:26.618Z,19.05
2019-04-20T22:31:20.529Z,18.91
2019-04-20T22:36:35.578Z,18.77
2019-04-20T22:41:44.679Z,18.59
2019-04-20T22:46:48.048Z,18.38
2019-04-20T22:52:05.285Z,18.18
2019-04-20T22:57:11.821Z,17.99
2019-04-20T23:02:09.743Z,17.82
2019-04-20T23:07:16.726Z,17.67
2019-04-20T23:12:23.803Z,17.52
2019-04-20T23:17:35.956Z,17.36
2019-04-20T23:22:40.864Z,17.22
2019-04-20T23:27:43.862Z,17.09
2019-04-20T23:32:49.759Z,16.97
2019-04-20T23:38:06.942Z,16.85
2019-04-20T23:43:25.122Z,16.77
2019-04-20T23:48:34.833Z,16.65
2019-04-20T23:53:48.108Z,16.56
2019-04-20T23:58:48.271Z,16.46
